createdAt,value
2017-10-07T00:01:09.602Z,3.47
2017-10-07T00:03:37.230Z,3.30
2017-10-07T00:06:04.820Z,3.33
2017-10-07T00:08:33.273Z,4.10
2017-10-07T00:11:00.829Z,3.93
2017-10-07T00:13:29.362Z,3.30
2017-10-07T00:15:57.871Z,3.80
2017-10-07T00:18:26.346Z,4.37
2017-10-07T00:20:54.598Z,3.70
2017-10-07T00:23:22.198Z,3.37
2017-10-07T00:25:49.776Z,3.40
2017-10-07T00:28:17.350Z,3.53
2017-10-07T00:30:46.947Z,4.47
2017-10-07T00:33:15.524Z,3.47
2017-10-07T00:35:44.302Z,3.80
2017-10-07T00:38:13.045Z,3.80
2017-10-07T00:40:40.663Z,4.20
2017-10-07T00:43:08.997Z,5.57
2017-10-07T00:45:36.514Z,5.03
2017-10-07T00:48:04.147Z,4.60
2017-10-07T00:50:31.740Z,4.10
2017-10-07T00:52:59.303Z,3.97
2017-10-07T00:55:26.944Z,4.17
2017-10-07T00:57:54.516Z,4.77
2017-10-07T01:00:22.135Z,3.70
2017-10-07T01:02:50.433Z,4.07
2017-10-07T01:05:18.033Z,4.10
2017-10-07T01:07:45.685Z,4.70
2017-10-07T01:10:14.141Z,4.00
2017-10-07T01:12:42.659Z,4.20
2017-10-07T01:15:10.265Z,4.47
2017-10-07T01:17:37.989Z,3.80
2017-10-07T01:20:05.571Z,4.20
2017-10-07T01:22:33.107Z,4.20
2017-10-07T01:25:00.845Z,4.13
2017-10-07T01:27:28.413Z,4.43
2017-10-07T01:29:56.820Z,5.00
2017-10-07T01:32:24.376Z,4.53
2017-10-07T01:34:52.796Z,4.20
2017-10-07T01:37:20.398Z,4.77
2017-10-07T01:39:48.123Z,3.93
2017-10-07T01:42:15.713Z,4.80
2017-10-07T01:44:43.253Z,4.33
2017-10-07T01:47:10.901Z,4.17
2017-10-07T01:49:38.496Z,4.80
2017-10-07T01:52:06.074Z,4.50
2017-10-07T01:54:33.699Z,4.20
2017-10-07T01:57:01.269Z,3.90
2017-10-07T01:59:28.966Z,4.30
2017-10-07T02:01:56.626Z,4.80
2017-10-07T02:04:24.228Z,3.90
2017-10-07T02:06:52.330Z,4.30
2017-10-07T02:09:19.933Z,4.47
2017-10-07T02:11:48.051Z,4.77
2017-10-07T02:14:16.214Z,4.37
2017-10-07T02:16:43.810Z,4.40
2017-10-07T02:19:11.423Z,5.30
2017-10-07T02:21:38.948Z,4.23
2017-10-07T02:24:06.623Z,4.13
2017-10-07T02:26:34.134Z,4.40
2017-10-07T02:29:02.029Z,4.43
2017-10-07T02:31:29.617Z,4.50
2017-10-07T02:33:57.087Z,4.77
2017-10-07T02:36:24.676Z,4.50
2017-10-07T02:38:52.290Z,4.30
2017-10-07T02:41:20.734Z,4.07
2017-10-07T02:43:48.415Z,3.90
2017-10-07T02:46:16.058Z,3.60
2017-10-07T02:48:45.059Z,3.90
2017-10-07T02:51:13.488Z,4.20
2017-10-07T02:53:41.085Z,3.60
2017-10-07T02:56:08.678Z,4.10
2017-10-07T02:58:36.238Z,3.80
2017-10-07T03:01:03.916Z,4.10
2017-10-07T03:03:31.508Z,4.40
2017-10-07T03:05:59.809Z,4.33
2017-10-07T03:08:27.469Z,4.07
2017-10-07T03:10:54.986Z,4.90
2017-10-07T03:13:22.547Z,4.47
2017-10-07T03:15:50.058Z,4.43
2017-10-07T03:18:17.658Z,4.43
2017-10-07T03:20:45.548Z,4.20
2017-10-07T03:23:14.039Z,4.33
2017-10-07T03:25:41.583Z,4.37
2017-10-07T03:28:09.214Z,4.30
2017-10-07T03:30:37.585Z,4.37
2017-10-07T03:33:05.193Z,4.20
2017-10-07T03:35:37.299Z,4.30
2017-10-07T03:38:04.914Z,4.10
2017-10-07T03:40:33.836Z,3.87
2017-10-07T03:43:02.748Z,4.73
2017-10-07T03:45:30.378Z,3.90
2017-10-07T03:47:59.009Z,4.40
2017-10-07T03:50:28.395Z,4.17
2017-10-07T03:52:55.980Z,4.30
2017-10-07T03:55:25.500Z,4.70
2017-10-07T03:57:53.076Z,5.13
2017-10-07T04:00:21.357Z,4.83
2017-10-07T04:02:49.022Z,5.00
2017-10-07T04:05:16.577Z,4.33
2017-10-07T04:07:44.149Z,4.07
2017-10-07T04:10:12.787Z,4.80
2017-10-07T04:12:40.453Z,5.00
2017-10-07T04:15:08.854Z,4.80
2017-10-07T04:17:36.498Z,5.03
2017-10-07T04:20:04.156Z,5.37
2017-10-07T04:22:31.731Z,5.17
2017-10-07T04:24:59.300Z,5.07
2017-10-07T04:27:27.695Z,5.00
2017-10-07T04:29:55.312Z,5.83
2017-10-07T04:32:23.118Z,5.87
2017-10-07T04:34:51.822Z,5.50
2017-10-07T04:37:19.448Z,5.10
2017-10-07T04:39:46.968Z,6.00
2017-10-07T04:42:15.157Z,5.43
2017-10-07T04:44:42.721Z,4.87
2017-10-07T04:47:14.153Z,6.60
2017-10-07T04:49:43.617Z,5.67
2017-10-07T04:52:11.717Z,5.30
2017-10-07T04:54:39.346Z,5.23
2017-10-07T04:57:06.921Z,5.37
2017-10-07T04:59:35.445Z,6.43
2017-10-07T05:02:02.998Z,6.17
2017-10-07T05:04:31.497Z,7.10
2017-10-07T05:06:59.112Z,7.40
2017-10-07T05:09:26.666Z,7.90
2017-10-07T05:11:54.250Z,6.10
2017-10-07T05:14:22.702Z,5.60
2017-10-07T05:16:50.928Z,5.50
2017-10-07T05:19:18.415Z,5.67
2017-10-07T05:21:45.870Z,6.10
2017-10-07T05:24:13.371Z,7.00
2017-10-07T05:26:40.847Z,7.07
2017-10-07T05:29:08.404Z,7.03
2017-10-07T05:31:35.899Z,7.37
2017-10-07T05:34:03.396Z,7.30
2017-10-07T05:36:30.879Z,6.80
2017-10-07T05:38:58.871Z,6.43
2017-10-07T05:41:26.407Z,7.00
2017-10-07T05:43:53.891Z,7.10
2017-10-07T05:46:21.382Z,6.93
2017-10-07T05:48:48.870Z,6.87
2017-10-07T05:51:16.438Z,7.10
2017-10-07T05:53:43.988Z,7.10
2017-10-07T05:56:11.507Z,6.87
2017-10-07T05:58:39.069Z,6.30
2017-10-07T06:01:06.574Z,6.50
2017-10-07T06:03:34.076Z,7.30
2017-10-07T06:06:01.856Z,6.20
2017-10-07T06:08:29.377Z,6.73
2017-10-07T06:10:57.035Z,6.67
2017-10-07T06:13:24.555Z,6.30
2017-10-07T06:15:52.076Z,6.97
2017-10-07T06:18:19.592Z,6.97
2017-10-07T06:20:47.423Z,6.93
2017-10-07T06:23:15.324Z,6.90
2017-10-07T06:25:42.916Z,5.90
2017-10-07T06:28:10.507Z,6.60
2017-10-07T06:30:38.075Z,6.80
2017-10-07T06:33:05.605Z,6.90
2017-10-07T06:35:33.210Z,6.90
2017-10-07T06:38:01.798Z,6.60
2017-10-07T06:40:29.320Z,6.40
2017-10-07T06:42:56.896Z,6.67
2017-10-07T06:45:24.453Z,7.10
2017-10-07T06:47:51.996Z,7.70
2017-10-07T06:50:19.733Z,6.50
2017-10-07T06:52:47.308Z,6.90
2017-10-07T06:55:14.827Z,6.50
2017-10-07T06:57:42.720Z,6.00
2017-10-07T07:00:10.197Z,6.40
2017-10-07T07:02:37.705Z,6.43
2017-10-07T07:05:05.229Z,6.03
2017-10-07T07:07:32.703Z,5.90
2017-10-07T07:10:00.281Z,6.00
2017-10-07T07:12:28.671Z,5.33
2017-10-07T07:14:56.129Z,5.50
2017-10-07T07:17:24.645Z,6.00
2017-10-07T07:19:52.369Z,5.03
2017-10-07T07:22:19.908Z,5.23
2017-10-07T07:24:47.501Z,5.73
2017-10-07T07:27:14.997Z,5.70
2017-10-07T07:29:43.056Z,5.60
2017-10-07T07:32:10.980Z,4.40
2017-10-07T07:34:38.522Z,5.77
2017-10-07T07:37:06.068Z,5.80
2017-10-07T07:39:33.605Z,5.73
2017-10-07T07:42:01.127Z,4.77
2017-10-07T07:44:32.971Z,5.20
2017-10-07T07:47:08.279Z,4.83
2017-10-07T07:49:48.139Z,4.10
2017-10-07T07:52:18.416Z,4.30
2017-10-07T07:54:53.192Z,4.33
2017-10-07T07:57:24.884Z,4.40
2017-10-07T07:59:52.370Z,4.23
2017-10-07T08:02:19.954Z,3.70
2017-10-07T08:04:47.675Z,3.90
2017-10-07T08:07:15.193Z,3.83
2017-10-07T08:09:42.718Z,3.90
2017-10-07T08:12:10.269Z,3.80
2017-10-07T08:14:38.653Z,3.13
2017-10-07T08:17:06.177Z,3.17
2017-10-07T08:19:34.448Z,4.57
2017-10-07T08:22:02.763Z,4.00
2017-10-07T08:24:30.540Z,3.13
2017-10-07T08:26:58.817Z,3.53
2017-10-07T08:29:26.327Z,3.20
2017-10-07T08:31:53.883Z,2.70
2017-10-07T08:34:22.199Z,3.00
2017-10-07T08:36:49.663Z,3.20
2017-10-07T08:39:17.184Z,3.00
2017-10-07T08:41:45.711Z,3.03
2017-10-07T08:44:13.213Z,2.90
2017-10-07T08:46:40.696Z,2.40
2017-10-07T08:49:08.154Z,2.70
2017-10-07T08:51:35.705Z,3.13
2017-10-07T08:54:03.177Z,2.80
2017-10-07T08:56:30.683Z,2.60
2017-10-07T08:58:58.160Z,2.60
2017-10-07T09:01:25.650Z,2.30
2017-10-07T09:03:53.147Z,2.10
2017-10-07T09:06:20.687Z,2.40
2017-10-07T09:08:48.240Z,2.10
2017-10-07T09:11:15.749Z,2.00
2017-10-07T09:13:43.267Z,2.10
2017-10-07T09:16:10.968Z,2.27
2017-10-07T09:18:40.235Z,1.93
2017-10-07T10:04:03.925Z,1.90
2017-10-07T10:06:34.351Z,1.90
2017-10-07T10:09:19.905Z,1.90
2017-10-07T10:11:59.527Z,1.80
2017-10-07T10:20:12.913Z,1.90
2017-10-07T10:22:44.171Z,1.83
2017-10-07T10:33:49.479Z,1.90
2017-10-07T10:36:24.150Z,1.90
2017-10-07T14:48:20.205Z,1.67
2017-10-07T14:51:02.294Z,1.60
2017-10-07T14:53:31.824Z,1.90
2017-10-07T14:56:27.836Z,1.60
2017-10-07T14:58:55.508Z,2.10
2017-10-07T15:01:23.309Z,2.70
2017-10-07T15:03:52.186Z,2.10
2017-10-07T15:06:19.773Z,3.97
2017-10-07T15:14:28.694Z,2.27
2017-10-07T15:16:57.694Z,1.80
2017-10-07T15:19:25.505Z,1.90
2017-10-07T15:22:11.528Z,1.70
2017-10-07T16:39:14.204Z,2.80
2017-10-07T16:57:55.017Z,3.07
2017-10-07T17:00:30.856Z,2.60
2017-10-07T17:19:36.494Z,2.80
2017-10-07T17:25:38.107Z,3.20
2017-10-07T17:42:09.140Z,3.20
2017-10-07T18:48:37.445Z,2.50
2017-10-07T18:51:09.603Z,2.10
2017-10-07T18:53:44.536Z,2.57
2017-10-07T18:56:16.539Z,2.70
2017-10-07T18:58:49.738Z,2.30
2017-10-07T19:01:25.055Z,2.23
2017-10-07T19:03:58.812Z,2.30
2017-10-07T19:06:30.766Z,2.27
2017-10-07T19:09:11.885Z,2.40
2017-10-07T20:28:11.191Z,4.40
2017-10-07T20:30:40.648Z,3.60
2017-10-07T20:33:08.368Z,4.17
2017-10-07T20:35:37.181Z,4.40
2017-10-07T20:38:04.770Z,3.83
2017-10-07T20:40:36.468Z,3.93
2017-10-07T20:43:04.420Z,3.00
2017-10-07T20:45:31.998Z,4.27
2017-10-07T20:48:00.127Z,3.87
2017-10-07T20:50:29.287Z,3.80
2017-10-07T20:52:57.186Z,4.20
2017-10-07T20:55:25.057Z,4.53
2017-10-07T20:57:52.777Z,4.10
2017-10-07T21:00:20.395Z,2.90
2017-10-07T21:02:48.182Z,2.83
2017-10-07T21:05:16.078Z,2.93
2017-10-07T21:07:43.847Z,3.10
2017-10-07T21:10:11.923Z,3.03
2017-10-07T21:12:39.570Z,3.37
2017-10-07T21:15:07.198Z,3.83
2017-10-07T21:17:35.264Z,3.53
2017-10-07T21:20:03.180Z,3.53
2017-10-07T21:22:30.954Z,3.73
2017-10-07T21:24:58.526Z,4.40
2017-10-07T21:27:26.144Z,4.17
2017-10-07T21:29:58.883Z,4.13
2017-10-07T21:32:26.700Z,4.43
2017-10-07T21:34:54.493Z,4.00
2017-10-07T21:37:23.492Z,4.57
2017-10-07T21:39:51.149Z,4.43
2017-10-07T21:42:19.707Z,4.23
2017-10-07T21:44:47.566Z,4.30
2017-10-07T21:47:15.686Z,3.80
2017-10-07T21:49:45.778Z,3.30
2017-10-07T21:52:18.821Z,3.67
2017-10-07T21:54:47.653Z,3.70
2017-10-07T21:57:20.650Z,3.80
2017-10-07T21:59:48.588Z,3.40
2017-10-07T22:05:03.042Z,3.43
2017-10-07T22:07:36.924Z,3.40
2017-10-07T22:10:09.639Z,3.57
2017-10-07T22:15:43.403Z,3.50
2017-10-07T22:18:16.442Z,3.07
2017-10-07T22:21:08.370Z,3.00
2017-10-07T22:23:38.363Z,3.33
2017-10-07T22:26:08.095Z,2.80
2017-10-07T22:28:39.235Z,2.90
2017-10-07T22:31:08.386Z,3.20
2017-10-07T22:33:36.989Z,3.00
2017-10-07T22:36:07.007Z,2.63
2017-10-07T22:38:34.929Z,3.40
2017-10-07T22:41:02.640Z,2.60
2017-10-07T22:43:30.940Z,2.60
2017-10-07T22:45:58.887Z,3.50
2017-10-07T22:48:30.270Z,2.70
2017-10-07T22:51:11.816Z,2.90
2017-10-07T22:56:30.721Z,3.07
2017-10-07T23:04:33.897Z,3.03
2017-10-07T23:07:01.538Z,3.07
2017-10-07T23:09:32.951Z,2.97
2017-10-07T23:21:19.802Z,3.70
2017-10-07T23:23:48.181Z,2.20
2017-10-07T23:26:15.931Z,2.20
2017-10-07T23:28:45.308Z,2.30
2017-10-07T23:31:21.323Z,2.23
2017-10-07T23:36:29.915Z,2.80
2017-10-07T23:39:00.465Z,2.07
2017-10-07T23:41:30.973Z,3.00
2017-10-07T23:43:58.687Z,2.43
2017-10-07T23:46:27.504Z,2.37
2017-10-07T23:48:55.803Z,2.87
2017-10-07T23:51:23.560Z,2.20
2017-10-07T23:53:52.026Z,2.53
2017-10-07T23:56:20.215Z,3.07
2017-10-07T23:58:48.144Z,2.80
